Главная страница
METAR-TAF:

METAR-TAF

Аэропорты :

Гамбург-Финкенвердер

Финкенвердер, Германия

широта: 53-32N, долгота: 009-50E, высота над уровнем моря: 5 м

Текущие метеонаблюдения

Эта сводка был подготовлена 42 минут назад, в 01:50 UTC
Ветер 4 Узел от северо-западный
Температура 4°C
Влажность 100%
Давление 1030 hPa
Видимость: 9000 м

METAR: EDHI 240150Z AUTO 31004KT 9000 // OVC150/// 04/04 Q1030

Время: 03:32 (02:32 UTC)

Прогноз

Эта сводка был подготовлена 9 часа и 32 минут назад, в 17:00 UTC
Прогноз действительный с 23-го 18 UTC до 23-го 21 UTC
Ветер 8 Узел от северо-западный
Видимость 10 км и более
небольшая облачность на высоте 3000 фута
изменения
С 23-го 19 UTC до 23-го 21 UTC
Ветер 3 Узел переменных направлений

TAF: EDHI 231700Z 2318/2321 31008KT 9999 FEW030 BECMG 2319/2321 VRB03KT

Метеонаблюдения и прогнозы для более 4000 аэропортов (сводки METAR и TAF).

Имеющиеся станции представлены на карте желтыми и красными точками.

Чтобы увидеть название станции, наведите на нее мышь.

Затем щелкните, чтобы увидеть метеонаблюдения и метеопрогнозы.

Управление картой: чтобы увеличить масштаб, щелкните зеленые кнопки с черным крестиком; чтобы уменьшить масштаб, щелкните зеленую кнопку с тире; для просмотра соседних карт щелкайте зеленые стрелки.


METAR-TAF: